MSC Giovanna — 3FRB9 — position and weather

sailwx.info

Track history (hours):
 
Tides and Currents Weather Stations Pressure Air Temp Water Temp Dewpoint Dewpoint Depression Visibility Wind Speed Wind Dir Waves Ship Positions

MSC Giovanna

Last reported at 2014-Nov-21 17:33 UTC. Time now 2014-Nov-21 17:54 UTC.
Position N 37°01' E 026°06'.

Length 178 m; draft 9.1 m.

Type: Ship (hazmat cat A). MMSI: 357702000.

Date/timePositionNaut miles runAvg speedWind from/ knotsBaromVisibWave heightAir tempDewpointWater temp
2014-Nov-21 17:33N 37°01' E 026°06'1514.7
2014-Nov-21 16:33N 37°10' E 025°51'1414.1
2014-Nov-21 15:33N 37°15' E 025°35'1414.1
2014-Nov-21 14:33N 37°15' E 025°17'1414.2
2014-Nov-21 13:33N 37°14' E 024°59'1414.1
2014-Nov-21 12:33N 37°13' E 024°42'1414.0
2014-Nov-21 11:33N 37°15' E 024°24'1414.1
2014-Nov-21 10:33N 37°20' E 024°07'1613.8
2014-Nov-21 09:26N 37°27' E 023°50'1314.5
2014-Nov-21 08:32N 37°39' E 023°43'1313.9
2014-Nov-21 07:33N 37°50' E 023°34'2 1.8
2014-Nov-21 06:31N 37°51' E 023°32'0 0.0
2014-Nov-21 05:31N 37°51' E 023°32'0 0.0
2014-Nov-21 04:33N 37°51' E 023°32'0 0.0
2014-Nov-21 03:33N 37°51' E 023°32'0 0.0
2014-Nov-21 02:31N 37°51' E 023°32'0 0.0
2014-Nov-21 01:31N 37°51' E 023°32'0 0.0
2014-Nov-21 00:31N 37°51' E 023°32'0 0.0
2014-Nov-20 23:31N 37°51' E 023°32'0 0.0
2014-Nov-20 22:31N 37°51' E 023°32'0 0.0
2014-Nov-20 21:31N 37°51' E 023°32'0 0.0
2014-Nov-20 20:31N 37°51' E 023°32'0 0.0
2014-Nov-20 19:31N 37°51' E 023°32'0 0.0
2014-Nov-20 18:31N 37°51' E 023°32'0 0.0
2014-Nov-20 17:31N 37°51' E 023°32'0 0.0
2014-Nov-20 16:31N 37°51' E 023°32'0 0.0
2014-Nov-20 15:31N 37°51' E 023°32'0 0.0
2014-Nov-20 14:31N 37°51' E 023°32'0 0.0
2014-Nov-20 13:31N 37°51' E 023°32'0 0.1
2014-Nov-20 12:31N 37°51' E 023°32'0 0.0
2014-Nov-20 11:31N 37°51' E 023°32'0 0.0
2014-Nov-20 10:31N 37°51' E 023°32'0 0.0
2014-Nov-20 09:31N 37°51' E 023°32'0 0.0
2014-Nov-20 08:33N 37°51' E 023°32'0 0.0
2014-Nov-20 07:32N 37°51' E 023°32'0 0.0
2014-Nov-20 06:33N 37°51' E 023°32'0 0.0
2014-Nov-20 05:32N 37°51' E 023°32'0 0.0
2014-Nov-20 04:33N 37°51' E 023°32'0 0.0
2014-Nov-20 03:33N 37°51' E 023°32'0 0.0
2014-Nov-20 02:31N 37°51' E 023°32'0 0.1
2014-Nov-20 01:32N 37°51' E 023°32'0 0.0
2014-Nov-20 00:32N 37°51' E 023°32'0 0.0
2014-Nov-19 23:31N 37°51' E 023°32'0 0.0
2014-Nov-19 22:31N 37°51' E 023°32'0 0.0
2014-Nov-19 21:32N 37°51' E 023°32'0 0.0
2014-Nov-19 20:32N 37°51' E 023°32'0 0.0
2014-Nov-19 19:32N 37°51' E 023°32'0 0.1
2014-Nov-19 18:32N 37°51' E 023°32'5 4.7
2014-Nov-19 17:33N 37°55' E 023°36'3 2.5
2014-Nov-19 16:32N 37°57' E 023°36'0 0.0
2014-Nov-19 15:32N 37°57' E 023°36'0 0.0
2014-Nov-19 14:32N 37°57' E 023°36'0 0.0
2014-Nov-19 13:32N 37°57' E 023°36'0 0.0
2014-Nov-19 12:32N 37°57' E 023°36'0 0.0
2014-Nov-19 11:33N 37°57' E 023°36'0 0.0
2014-Nov-19 10:29N 37°57' E 023°36'0 0.0
2014-Nov-19 09:32N 37°57' E 023°36'0 0.0
2014-Nov-19 08:32N 37°57' E 023°36'0 0.0
2014-Nov-19 07:31N 37°57' E 023°36'0 0.0
2014-Nov-19 06:32N 37°57' E 023°36'1 1.2
2014-Nov-19 05:33N 37°56' E 023°36'1 1.2
2014-Nov-19 04:33N 37°55' E 023°35'0 0.5
2014-Nov-19 03:33N 37°55' E 023°36'5 5.5
2014-Nov-19 02:33N 37°50' E 023°39'7 6.9
2014-Nov-19 01:33N 37°44' E 023°43'1211.6
2014-Nov-19 00:31N 37°32' E 023°44'1414.5
2014-Nov-18 23:33N 37°18' E 023°40'1515.0
2014-Nov-18 22:33N 37°03' E 023°36'1514.5
2014-Nov-18 21:33N 36°49' E 023°34'1514.5
2014-Nov-18 20:33N 36°37' E 023°23'2512.5
2014-Nov-18 18:33N 36°25' E 022°56'2913.9
2014-Nov-18 16:27N 36°23' E 022°20'33914.0
2014-Nov-17 16:17N 38°05' E 015°34'912.0
2014-Nov-17 15:33N 38°13' E 015°36'16 0.3
2014-Nov-15 17:25N 38°28' E 015°44'2 2.0
2014-Nov-15 16:33N 38°27' E 015°43'403 8.0
2014-Nov-13 14:14N 43°12' E 009°26'1014.6
2014-Nov-13 13:33N 43°20' E 009°19'1414.2
2014-Nov-13 12:33N 43°34' E 009°12'1414.3
2014-Nov-13 11:33N 43°47' E 009°04'1414.5
2014-Nov-13 10:33N 43°60' E 008°56'1414.2
2014-Nov-13 09:34N 44°13' E 008°47'1211.7
2014-Nov-13 08:31N 44°24' E 008°45'2 1.7
2014-Nov-13 07:33N 44°25' E 008°47'0 0.0
2014-Nov-13 06:24N 44°25' E 008°47'0 0.0
2014-Nov-13 05:29N 44°25' E 008°47'0 0.0
2014-Nov-13 04:16N 44°25' E 008°47'0 0.0
2014-Nov-13 03:31N 44°25' E 008°47'0 0.0
2014-Nov-13 02:33N 44°25' E 008°47'0 0.0
2014-Nov-13 01:33N 44°25' E 008°47'0 0.0
2014-Nov-13 00:31N 44°25' E 008°47'0 0.0
2014-Nov-12 23:31N 44°25' E 008°47'0 0.0
2014-Nov-12 22:22N 44°25' E 008°47'0 0.0
2014-Nov-12 21:19N 44°25' E 008°47'0 0.0
2014-Nov-12 20:32N 44°25' E 008°47'0 0.0
2014-Nov-12 19:32N 44°25' E 008°47'0 0.0
2014-Nov-12 18:32N 44°25' E 008°47'0 0.0
2014-Nov-12 15:26N 44°25' E 008°47'0 0.0
2014-Nov-12 14:17N 44°25' E 008°47'0 0.0
2014-Nov-12 12:32N 44°25' E 008°47'0 0.0
2014-Nov-12 11:14N 44°25' E 008°47'0 0.0
2014-Nov-12 10:32N 44°25' E 008°47'0 0.0
2014-Nov-12 08:27N 44°25' E 008°47'5 5.8
2014-Nov-12 07:33N 44°21' E 008°44'6 5.6
2014-Nov-12 06:33N 44°15' E 008°46'1 0.9
2014-Nov-12 05:33N 44°15' E 008°47'1 1.3
2014-Nov-12 04:33N 44°13' E 008°46'1 1.2
2014-Nov-12 03:33N 44°14' E 008°47'1 0.9
2014-Nov-12 02:33N 44°13' E 008°49'1 1.5
2014-Nov-12 01:33N 44°15' E 008°48'4 4.0
2014-Nov-12 00:33N 44°16' E 008°43'2 1.7
2014-Nov-11 23:33N 44°16' E 008°45'2 2.0
2014-Nov-11 22:33N 44°15' E 008°47'6 5.8
2014-Nov-11 21:33N 44°10' E 008°51'1514.8
2014-Nov-11 20:33N 43°56' E 008°60'1514.8
2014-Nov-11 19:33N 43°43' E 009°08'1514.9
2014-Nov-11 18:33N 43°29' E 009°17'1414.4
2014-Nov-11 17:33N 43°17' E 009°26'  
Track history (hours):
 
Tides and Currents Weather Stations Pressure Air Temp Water Temp Dewpoint Dewpoint Depression Visibility Wind Speed Wind Dir Waves Ship Positions

MSC Giovanna

Last reported at 2014-Nov-21 17:33 UTC. Time now 2014-Nov-21 17:54 UTC.
Position N 37°01' E 026°06'.

Length 178 m; draft 9.1 m.

Type: Ship (hazmat cat A). MMSI: 357702000.

Date/timePositionNaut miles runAvg speedWind from/ knotsBaromVisibWave heightAir tempDewpointWater temp
2014-Nov-21 17:33N 37°01' E 026°06'1514.7
2014-Nov-21 16:33N 37°10' E 025°51'1414.1
2014-Nov-21 15:33N 37°15' E 025°35'1414.1
2014-Nov-21 14:33N 37°15' E 025°17'1414.2
2014-Nov-21 13:33N 37°14' E 024°59'1414.1
2014-Nov-21 12:33N 37°13' E 024°42'1414.0
2014-Nov-21 11:33N 37°15' E 024°24'1414.1
2014-Nov-21 10:33N 37°20' E 024°07'1613.8
2014-Nov-21 09:26N 37°27' E 023°50'1314.5
2014-Nov-21 08:32N 37°39' E 023°43'1313.9
2014-Nov-21 07:33N 37°50' E 023°34'2 1.8
2014-Nov-21 06:31N 37°51' E 023°32'0 0.0
2014-Nov-21 05:31N 37°51' E 023°32'0 0.0
2014-Nov-21 04:33N 37°51' E 023°32'0 0.0
2014-Nov-21 03:33N 37°51' E 023°32'0 0.0
2014-Nov-21 02:31N 37°51' E 023°32'0 0.0
2014-Nov-21 01:31N 37°51' E 023°32'0 0.0
2014-Nov-21 00:31N 37°51' E 023°32'0 0.0
2014-Nov-20 23:31N 37°51' E 023°32'0 0.0
2014-Nov-20 22:31N 37°51' E 023°32'0 0.0
2014-Nov-20 21:31N 37°51' E 023°32'0 0.0
2014-Nov-20 20:31N 37°51' E 023°32'0 0.0
2014-Nov-20 19:31N 37°51' E 023°32'0 0.0
2014-Nov-20 18:31N 37°51' E 023°32'0 0.0
2014-Nov-20 17:31N 37°51' E 023°32'0 0.0
2014-Nov-20 16:31N 37°51' E 023°32'0 0.0
2014-Nov-20 15:31N 37°51' E 023°32'0 0.0
2014-Nov-20 14:31N 37°51' E 023°32'0 0.0
2014-Nov-20 13:31N 37°51' E 023°32'0 0.1
2014-Nov-20 12:31N 37°51' E 023°32'0 0.0
2014-Nov-20 11:31N 37°51' E 023°32'0 0.0
2014-Nov-20 10:31N 37°51' E 023°32'0 0.0
2014-Nov-20 09:31N 37°51' E 023°32'0 0.0
2014-Nov-20 08:33N 37°51' E 023°32'0 0.0
2014-Nov-20 07:32N 37°51' E 023°32'0 0.0
2014-Nov-20 06:33N 37°51' E 023°32'0 0.0
2014-Nov-20 05:32N 37°51' E 023°32'0 0.0
2014-Nov-20 04:33N 37°51' E 023°32'0 0.0
2014-Nov-20 03:33N 37°51' E 023°32'0 0.0
2014-Nov-20 02:31N 37°51' E 023°32'0 0.1
2014-Nov-20 01:32N 37°51' E 023°32'0 0.0
2014-Nov-20 00:32N 37°51' E 023°32'0 0.0
2014-Nov-19 23:31N 37°51' E 023°32'0 0.0
2014-Nov-19 22:31N 37°51' E 023°32'0 0.0
2014-Nov-19 21:32N 37°51' E 023°32'0 0.0
2014-Nov-19 20:32N 37°51' E 023°32'0 0.0
2014-Nov-19 19:32N 37°51' E 023°32'0 0.1
2014-Nov-19 18:32N 37°51' E 023°32'5 4.7
2014-Nov-19 17:33N 37°55' E 023°36'3 2.5
2014-Nov-19 16:32N 37°57' E 023°36'0 0.0
2014-Nov-19 15:32N 37°57' E 023°36'0 0.0
2014-Nov-19 14:32N 37°57' E 023°36'0 0.0
2014-Nov-19 13:32N 37°57' E 023°36'0 0.0
2014-Nov-19 12:32N 37°57' E 023°36'0 0.0
2014-Nov-19 11:33N 37°57' E 023°36'0 0.0
2014-Nov-19 10:29N 37°57' E 023°36'0 0.0
2014-Nov-19 09:32N 37°57' E 023°36'0 0.0
2014-Nov-19 08:32N 37°57' E 023°36'0 0.0
2014-Nov-19 07:31N 37°57' E 023°36'0 0.0
2014-Nov-19 06:32N 37°57' E 023°36'1 1.2
2014-Nov-19 05:33N 37°56' E 023°36'1 1.2
2014-Nov-19 04:33N 37°55' E 023°35'0 0.5
2014-Nov-19 03:33N 37°55' E 023°36'5 5.5
2014-Nov-19 02:33N 37°50' E 023°39'7 6.9
2014-Nov-19 01:33N 37°44' E 023°43'1211.6
2014-Nov-19 00:31N 37°32' E 023°44'1414.5
2014-Nov-18 23:33N 37°18' E 023°40'1515.0
2014-Nov-18 22:33N 37°03' E 023°36'1514.5
2014-Nov-18 21:33N 36°49' E 023°34'1514.5
2014-Nov-18 20:33N 36°37' E 023°23'2512.5
2014-Nov-18 18:33N 36°25' E 022°56'2913.9
2014-Nov-18 16:27N 36°23' E 022°20'33914.0
2014-Nov-17 16:17N 38°05' E 015°34'912.0
2014-Nov-17 15:33N 38°13' E 015°36'16 0.3
2014-Nov-15 17:25N 38°28' E 015°44'2 2.0
2014-Nov-15 16:33N 38°27' E 015°43'403 8.0
2014-Nov-13 14:14N 43°12' E 009°26'1014.6
2014-Nov-13 13:33N 43°20' E 009°19'1414.2
2014-Nov-13 12:33N 43°34' E 009°12'1414.3
2014-Nov-13 11:33N 43°47' E 009°04'1414.5
2014-Nov-13 10:33N 43°60' E 008°56'1414.2
2014-Nov-13 09:34N 44°13' E 008°47'1211.7
2014-Nov-13 08:31N 44°24' E 008°45'2 1.7
2014-Nov-13 07:33N 44°25' E 008°47'0 0.0
2014-Nov-13 06:24N 44°25' E 008°47'0 0.0
2014-Nov-13 05:29N 44°25' E 008°47'0 0.0
2014-Nov-13 04:16N 44°25' E 008°47'0 0.0
2014-Nov-13 03:31N 44°25' E 008°47'0 0.0
2014-Nov-13 02:33N 44°25' E 008°47'0 0.0
2014-Nov-13 01:33N 44°25' E 008°47'0 0.0
2014-Nov-13 00:31N 44°25' E 008°47'0 0.0
2014-Nov-12 23:31N 44°25' E 008°47'0 0.0
2014-Nov-12 22:22N 44°25' E 008°47'0 0.0
2014-Nov-12 21:19N 44°25' E 008°47'0 0.0
2014-Nov-12 20:32N 44°25' E 008°47'0 0.0
2014-Nov-12 19:32N 44°25' E 008°47'0 0.0
2014-Nov-12 18:32N 44°25' E 008°47'0 0.0
2014-Nov-12 15:26N 44°25' E 008°47'0 0.0
2014-Nov-12 14:17N 44°25' E 008°47'0 0.0
2014-Nov-12 12:32N 44°25' E 008°47'0 0.0
2014-Nov-12 11:14N 44°25' E 008°47'0 0.0
2014-Nov-12 10:32N 44°25' E 008°47'0 0.0
2014-Nov-12 08:27N 44°25' E 008°47'5 5.8
2014-Nov-12 07:33N 44°21' E 008°44'6 5.6
2014-Nov-12 06:33N 44°15' E 008°46'1 0.9
2014-Nov-12 05:33N 44°15' E 008°47'1 1.3
2014-Nov-12 04:33N 44°13' E 008°46'1 1.2
2014-Nov-12 03:33N 44°14' E 008°47'1 0.9
2014-Nov-12 02:33N 44°13' E 008°49'1 1.5
2014-Nov-12 01:33N 44°15' E 008°48'4 4.0
2014-Nov-12 00:33N 44°16' E 008°43'2 1.7
2014-Nov-11 23:33N 44°16' E 008°45'2 2.0
2014-Nov-11 22:33N 44°15' E 008°47'6 5.8
2014-Nov-11 21:33N 44°10' E 008°51'1514.8
2014-Nov-11 20:33N 43°56' E 008°60'1514.8
2014-Nov-11 19:33N 43°43' E 009°08'1514.9
2014-Nov-11 18:33N 43°29' E 009°17'1414.4
2014-Nov-11 17:33N 43°17' E 009°26'  

Dump ship's entire track history